createdAt,value
2023-02-22T00:00:59.866Z,8.70
2023-02-22T00:03:28.737Z,8.60
2023-02-22T00:05:59.704Z,8.60
2023-02-22T00:08:31.686Z,8.70
2023-02-22T00:11:00.760Z,8.60
2023-02-22T00:13:31.887Z,8.60
2023-02-22T00:16:00.208Z,8.60
2023-02-22T00:18:29.837Z,8.70
2023-02-22T00:21:00.777Z,8.70
2023-02-22T00:23:30.174Z,8.60
2023-02-22T00:26:00.176Z,8.60
2023-02-22T00:28:27.694Z,8.60
2023-02-22T00:30:54.983Z,8.60
2023-02-22T00:33:22.100Z,8.60
2023-02-22T00:35:48.920Z,8.70
2023-02-22T00:38:18.590Z,8.60
2023-02-22T00:40:45.642Z,8.60
2023-02-22T00:43:12.798Z,8.60
2023-02-22T00:45:39.796Z,8.60
2023-02-22T00:48:08.541Z,8.60
2023-02-22T00:50:36.079Z,8.60
2023-02-22T00:53:04.557Z,8.60
2023-02-22T00:55:33.831Z,8.60
2023-02-22T00:58:02.012Z,8.60
2023-02-22T01:00:37.222Z,8.60
2023-02-22T01:03:06.040Z,8.60
2023-02-22T01:05:33.786Z,8.60
2023-02-22T01:08:02.185Z,8.60
2023-02-22T01:10:31.526Z,8.60
2023-02-22T01:12:59.948Z,8.50
2023-02-22T01:15:30.665Z,8.60
2023-02-22T01:17:59.550Z,8.50
2023-02-22T01:20:27.759Z,8.60
2023-02-22T01:22:56.550Z,8.60
2023-02-22T01:25:28.833Z,8.50
2023-02-22T01:27:57.426Z,8.60
2023-02-22T01:30:30.854Z,8.60
2023-02-22T01:32:58.717Z,8.50
2023-02-22T01:35:34.877Z,8.50
2023-02-22T01:38:02.129Z,8.50
2023-02-22T01:40:35.306Z,8.60
2023-02-22T01:43:04.511Z,8.50
2023-02-22T01:45:32.706Z,8.50
2023-02-22T01:48:06.083Z,8.50
2023-02-22T01:50:35.464Z,8.50
2023-02-22T01:53:03.262Z,8.50
2023-02-22T01:55:32.000Z,8.50
2023-02-22T01:57:58.999Z,8.50
2023-02-22T02:00:27.967Z,8.50
2023-02-22T02:03:06.506Z,8.50
2023-02-22T02:05:35.622Z,8.50
2023-02-22T02:08:20.457Z,8.50
2023-02-22T02:10:48.852Z,8.40
2023-02-22T02:13:16.283Z,8.50
2023-02-22T02:15:43.238Z,8.50
2023-02-22T02:18:12.167Z,8.50
2023-02-22T02:20:42.017Z,8.50
2023-02-22T02:23:42.779Z,8.50
2023-02-22T02:26:09.610Z,8.50
2023-02-22T02:28:45.387Z,8.50
2023-02-22T02:31:12.144Z,8.40
2023-02-22T02:33:42.894Z,8.50
2023-02-22T02:36:23.827Z,8.50
2023-02-22T02:39:25.826Z,8.40
2023-02-22T02:41:53.049Z,8.50
2023-02-22T02:44:22.945Z,8.50
2023-02-22T02:47:08.178Z,8.50
2023-02-22T02:49:40.811Z,8.40
2023-02-22T02:52:09.697Z,8.50
2023-02-22T02:54:38.860Z,8.50
2023-02-22T02:57:06.771Z,8.50
2023-02-22T02:59:37.332Z,8.40
2023-02-22T03:02:13.663Z,8.40
2023-02-22T03:04:43.496Z,8.40
2023-02-22T03:07:19.221Z,8.50
2023-02-22T03:09:58.477Z,8.50
2023-02-22T03:12:41.675Z,8.40
2023-02-22T03:15:40.037Z,8.40
2023-02-22T03:18:22.989Z,8.40
2023-02-22T03:21:07.936Z,8.40
2023-02-22T03:23:41.856Z,8.40
2023-02-22T03:26:14.466Z,8.40
2023-02-22T03:28:44.263Z,8.40
2023-02-22T03:31:17.988Z,8.50
2023-02-22T03:33:55.563Z,8.40
2023-02-22T03:36:30.449Z,8.40
2023-02-22T03:39:00.402Z,8.40
2023-02-22T03:41:29.464Z,8.40
2023-02-22T03:44:02.739Z,8.40
2023-02-22T03:46:30.097Z,8.40
2023-02-22T03:49:09.786Z,8.40
2023-02-22T03:51:36.954Z,8.40
2023-02-22T03:54:05.021Z,8.30
2023-02-22T03:56:39.257Z,8.30
2023-02-22T03:59:08.464Z,8.30
2023-02-22T04:01:36.446Z,8.30
2023-02-22T04:04:04.043Z,8.30
2023-02-22T04:06:30.938Z,8.30
2023-02-22T04:08:57.828Z,8.20
2023-02-22T04:11:24.717Z,8.30
2023-02-22T04:13:51.725Z,8.20
2023-02-22T04:16:18.674Z,8.20
2023-02-22T04:18:45.621Z,8.20
2023-02-22T04:21:12.398Z,8.20
2023-02-22T04:23:39.225Z,8.20
2023-02-22T04:26:06.013Z,8.20
2023-02-22T04:28:32.864Z,8.20
2023-02-22T04:30:59.700Z,8.20
2023-02-22T04:33:26.846Z,8.20
2023-02-22T04:35:53.646Z,8.30
2023-02-22T04:38:20.581Z,8.20
2023-02-22T04:40:47.530Z,8.20
2023-02-22T04:43:14.336Z,8.20
2023-02-22T04:45:41.240Z,8.30
2023-02-22T04:48:08.026Z,8.20
2023-02-22T04:50:35.041Z,8.20
2023-02-22T04:53:01.967Z,8.20
2023-02-22T04:55:28.825Z,8.20
2023-02-22T04:57:56.711Z,8.20
2023-02-22T05:00:24.241Z,8.10
2023-02-22T05:02:51.309Z,8.20
2023-02-22T05:05:21.362Z,8.20
2023-02-22T05:07:49.591Z,8.20
2023-02-22T05:10:16.901Z,8.20
2023-02-22T05:12:43.793Z,8.10
2023-02-22T05:15:11.527Z,8.20
2023-02-22T05:17:38.356Z,8.20
2023-02-22T05:20:05.626Z,8.10
2023-02-22T05:22:32.462Z,8.10
2023-02-22T05:24:59.368Z,8.10
2023-02-22T05:27:26.159Z,8.10
2023-02-22T05:29:53.071Z,8.10
2023-02-22T05:32:19.906Z,8.10
2023-02-22T05:34:46.705Z,8.10
2023-02-22T05:37:13.555Z,8.10
2023-02-22T05:39:40.360Z,8.10
2023-02-22T05:42:07.223Z,8.10
2023-02-22T05:44:33.999Z,8.00
2023-02-22T05:47:00.871Z,8.00
2023-02-22T05:49:27.685Z,8.00
2023-02-22T05:51:59.238Z,8.00
2023-02-22T05:54:26.332Z,8.10
2023-02-22T05:56:53.129Z,8.00
2023-02-22T05:59:20.868Z,8.00
2023-02-22T06:01:47.715Z,7.90
2023-02-22T06:04:14.650Z,8.00
2023-02-22T06:06:41.659Z,7.90
2023-02-22T06:09:08.476Z,7.90
2023-02-22T06:11:35.343Z,7.90
2023-02-22T06:14:02.109Z,7.90
2023-02-22T06:16:29.107Z,7.90
2023-02-22T06:18:55.998Z,7.90
2023-02-22T06:21:22.837Z,8.00
2023-02-22T06:23:49.688Z,7.90
2023-02-22T06:26:17.899Z,7.90
2023-02-22T06:28:46.150Z,7.80
2023-02-22T06:31:13.075Z,7.80
2023-02-22T06:33:40.081Z,7.80
2023-02-22T06:36:07.669Z,7.90
2023-02-22T06:38:34.454Z,7.80
2023-02-22T06:41:02.877Z,7.80
2023-02-22T06:43:29.691Z,7.80
2023-02-22T06:45:57.154Z,7.80
2023-02-22T06:48:24.050Z,7.80
2023-02-22T06:50:50.990Z,7.80
2023-02-22T06:53:17.849Z,7.80
2023-02-22T06:55:44.748Z,7.80
2023-02-22T06:58:11.584Z,7.80
2023-02-22T07:00:38.448Z,7.80
2023-02-22T07:03:05.400Z,7.80
2023-02-22T07:05:32.404Z,7.80
2023-02-22T07:08:07.551Z,7.80
2023-02-22T07:10:36.065Z,7.80
2023-02-22T07:13:04.130Z,7.80
2023-02-22T07:15:32.852Z,7.70
2023-02-22T07:17:59.794Z,7.80
2023-02-22T07:20:28.727Z,7.80
2023-02-22T07:22:55.566Z,7.70
2023-02-22T07:25:24.514Z,7.70
2023-02-22T07:27:52.538Z,7.70
2023-02-22T07:30:28.037Z,7.70
2023-02-22T07:32:55.676Z,7.80
2023-02-22T07:35:26.466Z,7.80
2023-02-22T07:37:55.788Z,7.70
2023-02-22T07:40:24.617Z,7.80
2023-02-22T07:42:59.562Z,7.80
2023-02-22T07:45:31.950Z,7.80
2023-02-22T07:48:00.444Z,7.80
2023-02-22T07:50:30.741Z,7.80
2023-02-22T07:52:59.782Z,7.90
2023-02-22T07:55:29.063Z,7.90
2023-02-22T07:57:58.591Z,7.80
2023-02-22T08:00:34.475Z,7.80
2023-02-22T08:03:03.301Z,7.90
2023-02-22T08:05:32.101Z,7.80
2023-02-22T08:07:59.299Z,7.90
2023-02-22T08:10:26.861Z,7.90
2023-02-22T08:12:54.889Z,7.90
2023-02-22T08:15:28.609Z,7.90
2023-02-22T08:17:56.166Z,7.90
2023-02-22T08:20:23.715Z,7.90
2023-02-22T08:22:51.358Z,7.90
2023-02-22T08:25:20.473Z,7.90
2023-02-22T08:27:47.627Z,7.90
2023-02-22T08:30:20.600Z,7.90
2023-02-22T08:32:48.941Z,7.90
2023-02-22T08:35:18.283Z,7.90
2023-02-22T08:37:50.389Z,7.90
2023-02-22T08:40:19.564Z,7.80
2023-02-22T08:42:46.702Z,7.80
2023-02-22T08:45:14.324Z,7.80
2023-02-22T08:47:41.718Z,7.80
2023-02-22T08:50:09.666Z,7.70
2023-02-22T08:52:39.696Z,7.80
2023-02-22T08:55:07.118Z,7.80
2023-02-22T08:57:34.007Z,7.70
2023-02-22T09:00:00.999Z,7.70
2023-02-22T09:02:27.895Z,7.90
2023-02-22T09:04:54.704Z,7.80
2023-02-22T09:07:21.486Z,7.80
2023-02-22T09:09:48.443Z,7.80
2023-02-22T09:12:15.318Z,7.70
2023-02-22T09:14:43.065Z,7.70
2023-02-22T09:17:10.205Z,7.70
2023-02-22T09:19:37.016Z,7.70
2023-02-22T09:22:03.873Z,7.70
2023-02-22T09:24:30.742Z,7.80
2023-02-22T09:26:59.889Z,7.70
2023-02-22T09:29:27.932Z,7.70
2023-02-22T09:31:56.983Z,7.80
2023-02-22T09:34:29.624Z,7.90
2023-02-22T09:36:58.073Z,7.80
2023-02-22T09:39:25.616Z,7.80
2023-02-22T09:42:17.509Z,7.80
2023-02-22T09:44:44.262Z,7.80
2023-02-22T09:47:18.416Z,7.80
2023-02-22T09:50:00.049Z,7.80
2023-02-22T09:52:36.926Z,7.80
2023-02-22T09:55:17.122Z,7.80
2023-02-22T09:57:45.041Z,7.80
2023-02-22T10:00:21.872Z,7.90
2023-02-22T10:02:54.799Z,7.80
2023-02-22T10:05:28.030Z,8.20
2023-02-22T10:08:05.824Z,7.80
2023-02-22T10:10:37.190Z,7.90
2023-02-22T10:13:48.862Z,7.90
2023-02-22T10:16:21.932Z,7.90
2023-02-22T10:19:14.101Z,7.90
2023-02-22T10:22:19.378Z,7.90
2023-02-22T10:24:53.839Z,8.00
2023-02-22T10:27:34.231Z,8.00
2023-02-22T10:30:24.523Z,8.10
2023-02-22T10:33:06.378Z,8.10
2023-02-22T10:35:39.843Z,8.00
2023-02-22T10:38:28.696Z,8.30
2023-02-22T10:41:16.321Z,8.10
2023-02-22T10:43:44.574Z,8.10
2023-02-22T10:46:16.372Z,8.20
2023-02-22T10:48:47.297Z,8.20
2023-02-22T10:51:14.305Z,8.20
2023-02-22T10:53:42.065Z,8.30
2023-02-22T10:56:21.254Z,8.30
2023-02-22T10:59:02.561Z,8.40
2023-02-22T11:01:32.614Z,8.40
2023-02-22T11:04:14.608Z,8.40
2023-02-22T11:06:44.402Z,8.40
2023-02-22T11:09:22.637Z,8.40
2023-02-22T11:12:06.808Z,8.40
2023-02-22T11:14:33.694Z,8.40
2023-02-22T11:17:06.424Z,8.50
2023-02-22T11:19:34.127Z,8.50
2023-02-22T11:22:20.602Z,8.40
2023-02-22T11:24:57.717Z,8.40
2023-02-22T11:27:44.276Z,8.40
2023-02-22T11:30:22.556Z,8.50
2023-02-22T11:32:59.372Z,8.50
2023-02-22T11:35:29.369Z,8.50
2023-02-22T11:38:17.549Z,8.50
2023-02-22T11:40:45.547Z,8.50
2023-02-22T11:43:18.958Z,8.60
2023-02-22T11:46:20.649Z,8.60
2023-02-22T11:49:04.605Z,8.70
2023-02-22T11:51:34.154Z,8.70
2023-02-22T11:54:28.608Z,8.70
2023-02-22T11:57:11.007Z,8.70
2023-02-22T12:00:05.701Z,8.70
2023-02-22T12:02:56.393Z,8.80
2023-02-22T12:05:59.536Z,8.80
2023-02-22T12:08:38.944Z,8.80
2023-02-22T12:11:20.301Z,8.80
2023-02-22T12:14:11.478Z,8.80
2023-02-22T12:16:46.085Z,8.80
2023-02-22T12:19:40.073Z,8.90
2023-02-22T12:22:34.594Z,8.90
2023-02-22T12:25:23.997Z,8.90
2023-02-22T12:27:58.698Z,8.90
2023-02-22T12:30:34.110Z,8.90
2023-02-22T12:33:06.576Z,9.00
2023-02-22T12:35:50.523Z,9.00
2023-02-22T12:38:37.339Z,9.00
2023-02-22T12:41:27.025Z,9.00
2023-02-22T12:44:02.391Z,9.00
2023-02-22T12:46:43.578Z,9.00
2023-02-22T12:49:23.943Z,8.90
2023-02-22T12:52:22.004Z,8.90
2023-02-22T12:55:01.025Z,9.00
2023-02-22T12:57:58.584Z,9.00
2023-02-22T13:00:55.478Z,9.00
2023-02-22T13:03:39.314Z,9.00
2023-02-22T13:06:28.185Z,9.00
2023-02-22T13:09:05.464Z,9.10
2023-02-22T13:11:44.230Z,9.10
2023-02-22T13:14:30.149Z,9.10
2023-02-22T13:17:20.875Z,9.10
2023-02-22T13:20:15.412Z,9.20
2023-02-22T13:22:48.506Z,9.20
2023-02-22T13:25:21.516Z,9.40
2023-02-22T13:27:59.550Z,9.40
2023-02-22T13:30:57.159Z,9.50
2023-02-22T13:33:57.950Z,9.60
2023-02-22T13:36:50.047Z,9.70
2023-02-22T13:39:27.921Z,9.80
2023-02-22T13:42:31.667Z,9.90
2023-02-22T13:45:09.792Z,10.00
2023-02-22T13:47:55.561Z,10.10
2023-02-22T13:50:44.138Z,10.10
2023-02-22T13:53:17.014Z,10.20
2023-02-22T13:55:51.744Z,10.30
2023-02-22T13:58:18.733Z,10.40
2023-02-22T14:00:50.587Z,10.40
2023-02-22T14:03:42.879Z,10.50
2023-02-22T14:06:30.773Z,10.60
2023-02-22T14:09:09.935Z,10.70
2023-02-22T14:11:36.715Z,10.70
2023-02-22T14:14:03.491Z,10.80
2023-02-22T14:16:31.702Z,11.00
2023-02-22T14:19:16.691Z,11.00
2023-02-22T14:22:02.608Z,11.00
2023-02-22T14:24:51.063Z,11.00
2023-02-22T14:27:18.288Z,11.00
2023-02-22T14:29:55.418Z,10.90
2023-02-22T14:32:31.777Z,10.90
2023-02-22T14:35:14.326Z,10.90
2023-02-22T14:37:54.523Z,10.80
2023-02-22T14:40:33.215Z,10.80
2023-02-22T14:43:22.675Z,10.80
2023-02-22T14:46:00.377Z,10.70
2023-02-22T14:48:42.809Z,10.70
2023-02-22T14:51:29.114Z,10.60
2023-02-22T14:54:15.273Z,10.50
2023-02-22T14:57:15.824Z,10.50
2023-02-22T15:00:19.811Z,10.50
2023-02-22T15:02:49.062Z,10.50
2023-02-22T15:05:19.659Z,10.50
2023-02-22T15:08:07.726Z,10.50
2023-02-22T15:10:43.917Z,10.50
2023-02-22T15:13:33.154Z,10.50
2023-02-22T15:16:08.009Z,10.50
2023-02-22T15:18:45.080Z,10.50
2023-02-22T15:21:18.483Z,10.40
2023-02-22T15:23:51.207Z,10.40
2023-02-22T15:26:35.423Z,10.40
2023-02-22T15:29:08.227Z,10.40
2023-02-22T15:31:37.517Z,10.30
2023-02-22T15:34:22.143Z,10.30
2023-02-22T15:36:54.831Z,10.30
2023-02-22T15:39:33.212Z,10.30
2023-02-22T15:42:08.084Z,10.20
2023-02-22T15:44:43.230Z,10.30
2023-02-22T15:47:28.071Z,10.20
2023-02-22T15:50:25.991Z,10.20
2023-02-22T15:53:05.162Z,10.20
2023-02-22T15:55:36.702Z,10.10
2023-02-22T15:58:19.228Z,10.20
2023-02-22T16:00:50.602Z,10.20
2023-02-22T16:03:33.884Z,10.20
2023-02-22T16:06:01.632Z,10.20
2023-02-22T16:08:54.026Z,10.10
2023-02-22T16:11:30.694Z,10.10
2023-02-22T16:14:05.241Z,10.10
2023-02-22T16:16:41.628Z,10.00
2023-02-22T16:19:42.752Z,10.00
2023-02-22T16:22:28.285Z,10.00
2023-02-22T16:25:16.271Z,10.00
2023-02-22T16:27:48.662Z,10.00
2023-02-22T16:30:24.304Z,9.90
2023-02-22T16:32:53.976Z,9.90
2023-02-22T16:35:21.605Z,9.90
2023-02-22T16:37:52.699Z,9.90
2023-02-22T16:40:27.352Z,9.80
2023-02-22T16:42:54.230Z,9.80
2023-02-22T16:45:22.132Z,9.80
2023-02-22T16:47:53.640Z,9.80
2023-02-22T16:50:22.074Z,9.80
2023-02-22T16:52:49.188Z,9.80
2023-02-22T16:55:18.920Z,9.70
2023-02-22T16:57:47.201Z,9.70
2023-02-22T17:00:31.903Z,9.60
2023-02-22T17:03:03.972Z,9.70
2023-02-22T17:05:36.145Z,9.60
2023-02-22T17:08:04.834Z,9.60
2023-02-22T17:10:31.938Z,9.60
2023-02-22T17:13:05.224Z,9.60
2023-02-22T17:15:39.888Z,9.50
2023-02-22T17:18:22.991Z,9.50
2023-02-22T17:20:51.308Z,9.50
2023-02-22T17:23:19.188Z,9.50
2023-02-22T17:25:56.550Z,9.50
2023-02-22T17:28:24.788Z,9.50
2023-02-22T17:30:53.591Z,9.50
2023-02-22T17:33:26.600Z,9.50
2023-02-22T17:35:58.467Z,9.50
2023-02-22T17:38:29.041Z,9.50
2023-02-22T17:40:57.694Z,9.50
2023-02-22T17:43:27.997Z,9.50
2023-02-22T17:45:55.811Z,9.50
2023-02-22T17:48:24.379Z,9.40
2023-02-22T17:50:52.133Z,9.40
2023-02-22T17:53:22.673Z,9.50
2023-02-22T17:55:49.956Z,9.50
2023-02-22T17:58:17.436Z,9.40
2023-02-22T18:00:46.964Z,9.40
2023-02-22T18:03:17.592Z,9.40
2023-02-22T18:05:47.354Z,9.40
2023-02-22T18:08:15.444Z,9.30
2023-02-22T18:10:43.847Z,9.30
2023-02-22T18:13:18.652Z,9.30
2023-02-22T18:15:46.721Z,9.30
2023-02-22T18:18:17.645Z,9.30
2023-02-22T18:20:47.305Z,9.30
2023-02-22T18:23:20.256Z,9.30
2023-02-22T18:26:03.909Z,9.20
2023-02-22T18:28:36.839Z,9.20
2023-02-22T18:31:09.290Z,9.20
2023-02-22T18:33:36.517Z,9.20
2023-02-22T18:36:03.620Z,9.20
2023-02-22T18:38:30.947Z,9.20
2023-02-22T18:41:03.416Z,9.10
2023-02-22T18:43:37.176Z,9.20
2023-02-22T18:46:21.618Z,9.20
2023-02-22T18:48:51.919Z,9.20
2023-02-22T18:51:18.770Z,9.30
2023-02-22T18:53:47.720Z,9.30
2023-02-22T18:56:17.812Z,9.30
2023-02-22T18:58:45.128Z,9.30
2023-02-22T19:01:17.582Z,9.30
2023-02-22T19:03:47.272Z,9.40
2023-02-22T19:06:15.507Z,9.40
2023-02-22T19:08:44.286Z,9.30
2023-02-22T19:11:23.937Z,9.30
2023-02-22T19:13:57.332Z,9.30
2023-02-22T19:16:26.591Z,9.30
2023-02-22T19:18:57.626Z,9.30
2023-02-22T19:21:27.277Z,9.30
2023-02-22T19:23:54.362Z,9.20
2023-02-22T19:26:24.005Z,9.30
2023-02-22T19:28:52.905Z,9.20
2023-02-22T19:31:26.197Z,9.20
2023-02-22T19:33:53.365Z,9.20
2023-02-22T19:36:23.211Z,9.20
2023-02-22T19:38:50.638Z,9.20
2023-02-22T19:41:20.713Z,9.20
2023-02-22T19:43:49.730Z,9.10
2023-02-22T19:46:17.872Z,9.20
2023-02-22T19:48:45.693Z,9.20
2023-02-22T19:51:14.681Z,9.20
2023-02-22T19:53:42.958Z,9.20
2023-02-22T19:56:18.171Z,9.20
2023-02-22T19:58:47.278Z,9.20
2023-02-22T20:01:15.268Z,9.10
2023-02-22T20:03:43.888Z,9.10
2023-02-22T20:06:11.613Z,9.10
2023-02-22T20:08:42.165Z,9.00
2023-02-22T20:11:11.035Z,9.10
2023-02-22T20:13:39.153Z,9.00
2023-02-22T20:16:07.113Z,9.00
2023-02-22T20:18:34.191Z,9.00
2023-02-22T20:21:06.009Z,9.00
2023-02-22T20:23:32.957Z,9.00
2023-02-22T20:25:59.835Z,9.00
2023-02-22T20:28:26.989Z,9.00
2023-02-22T20:30:56.858Z,9.00
2023-02-22T20:33:23.973Z,8.90
2023-02-22T20:35:50.939Z,8.90
2023-02-22T20:38:19.380Z,8.90
2023-02-22T20:40:46.850Z,8.90
2023-02-22T20:43:13.740Z,8.90
2023-02-22T20:45:41.604Z,8.90
2023-02-22T20:48:08.515Z,8.90
2023-02-22T20:50:35.782Z,8.80
2023-02-22T20:53:02.720Z,8.80
2023-02-22T20:55:30.417Z,8.80
2023-02-22T20:57:57.427Z,8.80
2023-02-22T21:00:24.366Z,8.80
2023-02-22T21:02:51.538Z,8.80
2023-02-22T21:05:18.406Z,8.80
2023-02-22T21:07:45.341Z,8.70
2023-02-22T21:10:12.507Z,8.70
2023-02-22T21:12:41.787Z,8.70
2023-02-22T21:15:09.176Z,8.70
2023-02-22T21:17:36.791Z,8.60
2023-02-22T21:20:09.511Z,8.60
2023-02-22T21:22:38.038Z,8.60
2023-02-22T21:25:05.806Z,8.60
2023-02-22T21:27:32.792Z,8.60
2023-02-22T21:29:59.701Z,8.50
2023-02-22T21:32:26.507Z,8.50
2023-02-22T21:34:54.153Z,8.50
2023-02-22T21:37:21.869Z,8.40
2023-02-22T21:39:50.454Z,8.50
2023-02-22T21:42:17.293Z,8.40
2023-02-22T21:44:44.285Z,8.50
2023-02-22T21:47:11.148Z,8.40
2023-02-22T21:49:38.189Z,8.40
2023-02-22T21:52:07.671Z,8.40
2023-02-22T21:54:35.247Z,8.30
2023-02-22T21:57:02.096Z,8.30
2023-02-22T21:59:28.936Z,8.30
2023-02-22T22:01:56.654Z,8.30
2023-02-22T22:04:29.096Z,8.30
2023-02-22T22:06:58.441Z,8.30
2023-02-22T22:09:29.052Z,8.20
2023-02-22T22:11:58.369Z,8.20
2023-02-22T22:14:26.370Z,8.20
2023-02-22T22:16:58.677Z,8.20
2023-02-22T22:19:30.359Z,8.20
2023-02-22T22:21:58.257Z,8.20
2023-02-22T22:24:27.184Z,8.10
2023-02-22T22:26:56.671Z,8.20
2023-02-22T22:29:28.727Z,8.20
2023-02-22T22:31:56.953Z,8.10
2023-02-22T22:34:29.699Z,8.10
2023-02-22T22:37:00.379Z,8.20
2023-02-22T22:39:27.616Z,8.10
2023-02-22T22:41:54.755Z,8.10
2023-02-22T22:44:29.883Z,8.10
2023-02-22T22:46:56.812Z,8.00
2023-02-22T22:49:25.550Z,8.00
2023-02-22T22:51:53.533Z,8.00
2023-02-22T22:54:20.334Z,8.00
2023-02-22T22:56:47.134Z,8.00
2023-02-22T22:59:14.117Z,8.00
2023-02-22T23:01:44.649Z,8.00
2023-02-22T23:04:16.691Z,8.00
2023-02-22T23:06:54.166Z,8.00
2023-02-22T23:09:24.505Z,8.00
2023-02-22T23:12:15.042Z,8.00
2023-02-22T23:14:44.259Z,8.00
2023-02-22T23:17:26.753Z,8.00
2023-02-22T23:19:53.627Z,8.00
2023-02-22T23:22:21.282Z,8.00
2023-02-22T23:24:48.440Z,8.00
2023-02-22T23:27:15.475Z,8.00
2023-02-22T23:29:46.408Z,8.00
2023-02-22T23:32:14.205Z,8.00
2023-02-22T23:34:41.487Z,8.00
2023-02-22T23:37:10.393Z,8.00
2023-02-22T23:39:37.780Z,8.00
2023-02-22T23:42:04.819Z,7.90
2023-02-22T23:44:31.858Z,7.90
2023-02-22T23:46:58.845Z,7.90
2023-02-22T23:49:27.529Z,7.90
2023-02-22T23:51:55.601Z,7.90
2023-02-22T23:54:25.519Z,8.00
2023-02-22T23:56:58.371Z,7.90
2023-02-22T23:59:26.944Z,7.90
